Time;durP1;ratioP1;P1;durP2;ratioP2;P2;SDS_P1;SDS_P2;PMS_P1;PMS_P2;Temp;Humidity;BMP_temperature;BMP_pressure;BME280_temperature;BME280_humidity;BME280_pressure;Samples;Min_cycle;Max_cycle;Signal;HPM_P1;HPM_P2
2022/11/16 00:01:46;;;;;;;12.00;5.50;;;;;;;11.89;91.86;99880.00;5030180;28;20048;-71
2022/11/16 00:04:12;;;;;;;12.93;5.60;;;;;;;11.91;91.67;99886.56;5031492;28;20037;-70
2022/11/16 00:06:38;;;;;;;10.73;6.03;;;;;;;11.83;91.13;99876.91;5033269;28;20104;-70
2022/11/16 00:09:21;;;;;;;13.93;6.30;;;;;;;12.04;90.00;99878.91;5031204;28;20067;-70
2022/11/16 00:11:53;;;;;;;17.42;5.72;;;;;;;11.87;90.23;99866.91;5029443;28;20088;-71
2022/11/16 00:14:24;;;;;;;15.60;6.63;;;;;;;11.89;90.61;99867.28;5031830;28;20853;-70
2022/11/16 00:16:50;;;;;;;15.23;6.07;;;;;;;11.83;90.64;99863.44;5033301;28;20041;-70
2022/11/16 00:19:16;;;;;;;12.40;6.05;;;;;;;11.68;90.81;99861.84;5043979;28;20068;-70
2022/11/16 00:21:42;;;;;;;15.38;7.05;;;;;;;11.71;91.02;99847.63;5032159;28;20063;-71
2022/11/16 00:24:11;;;;;;;13.20;6.13;;;;;;;11.74;90.95;99850.31;5031817;28;20493;-70
2022/11/16 00:26:37;;;;;;;11.93;6.28;;;;;;;11.85;90.83;99857.63;5021833;28;20037;-71
2022/11/16 00:29:02;;;;;;;12.48;5.55;;;;;;;11.83;90.64;99852.63;5034694;28;20073;-71
2022/11/16 00:31:28;;;;;;;11.85;5.85;;;;;;;11.79;90.05;99835.66;5028545;28;20029;-71
2022/11/16 00:33:53;;;;;;;17.02;5.90;;;;;;;11.72;90.72;99849.16;5030476;28;20103;-71
2022/11/16 00:36:19;;;;;;;8.93;4.88;;;;;;;11.67;91.42;99844.13;5030990;28;20037;-70
2022/11/16 00:38:45;;;;;;;14.20;7.05;;;;;;;11.50;92.21;99850.19;5031627;28;20083;-72
2022/11/16 00:41:12;;;;;;;17.00;6.18;;;;;;;11.69;91.89;99847.22;5032403;28;20509;-71
2022/11/16 00:43:38;;;;;;;11.88;5.60;;;;;;;11.71;91.35;99845.69;5017279;28;20042;-71
2022/11/16 00:46:04;;;;;;;15.65;6.25;;;;;;;11.70;91.35;99848.75;5021707;28;20507;-71
2022/11/16 00:48:30;;;;;;;13.02;6.10;;;;;;;11.78;90.29;99844.94;5032712;28;20052;-72
2022/11/16 00:50:55;;;;;;;15.40;5.93;;;;;;;11.70;90.31;99840.66;5030900;28;20099;-71
2022/11/16 00:53:21;;;;;;;13.57;7.10;;;;;;;11.60;91.33;99838.69;5031326;28;20421;-70
2022/11/16 00:55:47;;;;;;;11.43;5.43;;;;;;;11.66;91.64;99832.56;5028126;28;20033;-71
2022/11/16 00:58:15;;;;;;;10.77;6.20;;;;;;;11.61;91.72;99834.84;5012858;28;20033;-71
2022/11/16 01:00:43;;;;;;;15.98;6.07;;;;;;;11.70;90.46;99829.88;5047512;28;20172;-71
2022/11/16 01:03:09;;;;;;;13.48;5.18;;;;;;;11.65;90.87;99831.00;5014046;28;20128;-71
2022/11/16 01:05:34;;;;;;;16.65;6.53;;;;;;;11.53;90.62;99825.97;5008300;28;20080;-71
2022/11/16 01:08:00;;;;;;;13.35;5.78;;;;;;;11.52;91.35;99831.72;5030576;28;20073;-72
2022/11/16 01:10:26;;;;;;;13.85;6.05;;;;;;;11.51;91.23;99833.66;5030106;28;20033;-71
2022/11/16 01:12:54;;;;;;;13.65;5.65;;;;;;;11.49;90.51;99835.19;5047638;28;20037;-71
2022/11/16 01:15:22;;;;;;;13.23;5.63;;;;;;;11.40;90.78;99845.56;5030157;28;20037;-70
2022/11/16 01:17:49;;;;;;;17.00;7.00;;;;;;;11.42;90.99;99845.97;5009637;28;20061;-71
2022/11/16 01:20:18;;;;;;;20.90;6.60;;;;;;;11.36;91.97;99853.63;5043266;28;20021;-71
2022/11/16 01:22:44;;;;;;;12.63;5.70;;;;;;;11.41;91.62;99839.00;5031095;28;20037;-70
2022/11/16 01:25:11;;;;;;;13.43;6.93;;;;;;;11.31;91.61;99843.22;5029556;28;20025;-71
2022/11/16 01:27:37;;;;;;;11.18;5.95;;;;;;;11.38;91.89;99837.84;5031841;28;20038;-71
2022/11/16 01:30:06;;;;;;;14.38;6.13;;;;;;;11.30;91.60;99820.13;5030188;28;20033;-70
2022/11/16 01:32:34;;;;;;;15.43;7.05;;;;;;;11.39;90.81;99833.22;5026423;28;20500;-70
2022/11/16 01:35:01;;;;;;;17.45;6.75;;;;;;;11.45;90.90;99826.31;5011656;28;20079;-71
2022/11/16 01:37:30;;;;;;;18.05;7.43;;;;;;;11.02;92.59;99828.06;5029388;28;20453;-70
2022/11/16 01:39:56;;;;;;;14.88;6.28;;;;;;;11.23;92.20;99832.75;5026436;28;20029;-71
2022/11/16 01:42:26;;;;;;;17.85;7.22;;;;;;;11.40;90.91;99835.53;5031537;28;20032;-71
2022/11/16 01:45:01;;;;;;;14.27;7.28;;;;;;;11.29;91.11;99821.25;5031026;28;20029;-71
2022/11/16 01:47:28;;;;;;;15.93;5.95;;;;;;;11.40;91.34;99832.09;5030598;28;20098;-71
2022/11/16 01:50:05;;;;;;;15.25;6.60;;;;;;;11.45;90.15;99826.31;5037192;28;20038;-71
2022/11/16 01:52:36;;;;;;;15.52;6.25;;;;;;;11.38;90.61;99826.31;5025294;28;20092;-71
2022/11/16 01:55:03;;;;;;;18.15;7.60;;;;;;;10.93;91.99;99819.56;5021578;28;20095;-71
2022/11/16 01:57:41;;;;;;;12.55;6.18;;;;;;;11.04;92.05;99825.78;5029562;28;20060;-71
2022/11/16 02:00:10;;;;;;;17.42;6.95;;;;;;;11.16;91.86;99819.28;5013140;28;20059;-72
2022/11/16 02:02:51;;;;;;;15.45;6.40;;;;;;;11.19;92.23;99811.19;5030564;28;20426;-71
2022/11/16 02:05:46;;;;;;;12.77;6.00;;;;;;;11.28;91.34;99822.41;5029374;28;20706;-71
2022/11/16 02:11:48;;;;;;;12.80;6.45;;;;;;;11.39;90.83;99798.19;5019637;28;20041;-71
2022/11/16 02:14:26;;;;;;;15.68;7.38;;;;;;;11.32;90.34;99787.38;5023374;28;20414;-71
2022/11/16 02:17:09;;;;;;;13.02;6.15;;;;;;;11.25;91.07;99784.66;5042798;28;20410;-71
2022/11/16 02:20:04;;;;;;;10.27;5.13;;;;;;;11.25;90.25;99768.47;5029956;28;20049;-71
2022/11/16 02:23:18;;;;;;;13.40;6.63;;;;;;;11.23;90.84;99770.78;5029714;28;20087;-71
2022/11/16 02:26:01;;;;;;;13.35;6.78;;;;;;;11.13;91.26;99776.94;5018693;28;20053;-71
2022/11/16 02:28:30;;;;;;;16.98;6.43;;;;;;;11.22;91.54;99775.41;5018212;28;20091;-71
2022/11/16 02:30:59;;;;;;;18.70;7.18;;;;;;;11.16;91.22;99779.63;5033208;23;20050;-66
2022/11/16 02:33:33;;;;;;;14.35;7.00;;;;;;;11.20;90.99;99777.72;4995683;28;20034;-66
2022/11/16 02:36:02;;;;;;;15.23;6.05;;;;;;;11.10;91.25;99766.91;4986517;28;20133;-66
2022/11/16 02:38:33;;;;;;;20.17;6.68;;;;;;;11.00;91.51;99779.19;4989988;28;20483;-66
2022/11/16 02:41:08;;;;;;;18.00;7.55;;;;;;;10.82;92.62;99781.00;5006533;28;20035;-66
2022/11/16 02:43:40;;;;;;;15.13;6.70;;;;;;;10.81;93.20;99769.47;4990075;28;20044;-66
2022/11/16 02:46:12;;;;;;;16.08;7.10;;;;;;;10.82;92.56;99771.00;4985453;28;20036;-65
2022/11/16 02:48:42;;;;;;;18.42;7.45;;;;;;;11.08;91.85;99761.13;4991275;28;20030;-66
2022/11/16 02:51:09;;;;;;;16.20;7.07;;;;;;;10.95;92.18;99759.91;4997518;28;20562;-66
2022/11/16 02:54:11;;;;;;;12.88;6.10;;;;;;;10.95;93.13;99752.63;4988657;28;20031;-66
2022/11/16 02:57:02;;;;;;;12.00;5.97;;;;;;;10.99;92.31;99749.94;5001460;28;20033;-66
2022/11/16 02:59:51;;;;;;;17.80;7.70;;;;;;;10.76;92.34;99748.28;4961476;28;20129;-66
2022/11/16 03:02:23;;;;;;;22.33;7.93;;;;;;;10.93;91.97;99756.81;4994827;28;20030;-66
2022/11/16 03:04:55;;;;;;;14.93;6.70;;;;;;;10.99;92.21;99755.31;4987110;28;20088;-65
2022/11/16 03:07:28;;;;;;;19.30;7.15;;;;;;;10.89;92.23;99762.22;4990066;28;20032;-65
2022/11/16 03:09:55;;;;;;;12.07;5.68;;;;;;;10.89;92.48;99762.97;4993712;28;20479;-65
2022/11/16 03:12:28;;;;;;;15.82;6.38;;;;;;;10.99;92.23;99772.25;4989383;28;20026;-65
2022/11/16 03:15:00;;;;;;;20.40;6.20;;;;;;;10.97;91.72;99773.78;4989451;28;20030;-66
2022/11/16 03:17:37;;;;;;;18.08;7.32;;;;;;;10.99;91.30;99766.88;4995220;28;20031;-66
2022/11/16 03:20:06;;;;;;;17.13;7.47;;;;;;;10.78;92.17;99772.16;4998303;28;20046;-66
2022/11/16 03:22:44;;;;;;;15.80;6.80;;;;;;;10.88;92.69;99760.66;4974027;28;20035;-66
2022/11/16 03:25:13;;;;;;;14.88;7.07;;;;;;;11.09;91.44;99760.72;4988266;28;20034;-65
2022/11/16 03:27:51;;;;;;;14.27;6.30;;;;;;;11.05;90.57;99762.66;4984921;28;20495;-66
2022/11/16 03:30:20;;;;;;;17.10;7.13;;;;;;;10.88;90.81;99761.44;4991052;28;20073;-66
2022/11/16 03:33:02;;;;;;;18.53;6.87;;;;;;;10.73;92.54;99764.44;4988921;28;20065;-66
2022/11/16 03:35:33;;;;;;;14.02;5.78;;;;;;;10.75;92.19;99756.75;4993070;28;20034;-66
2022/11/16 03:38:01;;;;;;;11.00;5.93;;;;;;;10.74;91.81;99755.22;4992019;28;20404;-66
2022/11/16 03:40:30;;;;;;;15.85;6.88;;;;;;;10.65;92.97;99762.84;4995214;28;20034;-66
2022/11/16 03:42:58;;;;;;;17.42;6.88;;;;;;;10.72;92.79;99773.66;4998601;28;20030;-66
2022/11/16 03:45:24;;;;;;;18.73;7.00;;;;;;;10.68;92.93;99764.78;5015165;28;20407;-65
2022/11/16 03:47:51;;;;;;;15.68;6.78;;;;;;;10.78;92.25;99751.38;4993364;28;20446;-66
2022/11/16 03:50:17;;;;;;;13.30;6.28;;;;;;;10.78;92.53;99746.00;4997577;28;20027;-66
2022/11/16 03:52:43;;;;;;;17.70;7.35;;;;;;;10.76;92.58;99753.66;4993922;28;20038;-66
2022/11/16 03:55:08;;;;;;;13.68;6.65;;;;;;;10.71;92.12;99743.28;4999461;28;20108;-66
2022/11/16 03:57:34;;;;;;;14.00;6.60;;;;;;;10.67;92.42;99749.78;4994649;28;20026;-66
2022/11/16 04:00:00;;;;;;;17.27;6.78;;;;;;;10.45;94.00;99748.88;4993323;28;20034;-66
2022/11/16 04:02:28;;;;;;;14.20;6.85;;;;;;;10.55;93.66;99753.56;4991224;28;20113;-66
2022/11/16 04:24:22;;;;;;;14.75;6.10;;;;;;;10.45;94.05;99742.75;4986907;28;20030;-65
2022/11/16 04:29:41;;;;;;;15.52;6.38;;;;;;;10.39;94.34;99752.31;4990476;28;20034;-66
2022/11/16 04:37:48;;;;;;;15.18;6.38;;;;;;;10.19;96.06;99756.41;4989907;28;20352;-66
2022/11/16 04:40:26;;;;;;;13.52;6.10;;;;;;;10.37;95.88;99758.09;4988346;28;20022;-65
2022/11/16 04:43:00;;;;;;;11.77;5.95;;;;;;;10.51;94.89;99765.47;4992162;28;20040;-66
2022/11/16 04:48:18;;;;;;;21.48;5.75;;;;;;;10.45;94.36;99775.06;5008251;28;20031;-66
2022/11/16 04:50:45;;;;;;;12.30;5.00;;;;;;;10.63;93.41;99762.44;4991285;28;20038;-66
2022/11/16 04:53:11;;;;;;;13.10;6.55;;;;;;;10.71;93.08;99774.81;4990990;28;20026;-66
2022/11/16 04:55:43;;;;;;;13.48;5.90;;;;;;;10.63;92.04;99765.91;5005692;28;20220;-65
2022/11/16 04:58:09;;;;;;;11.35;5.57;;;;;;;10.44;93.67;99763.50;4985463;28;20133;-65
2022/11/16 05:00:35;;;;;;;12.65;5.80;;;;;;;10.57;93.45;99770.13;4988925;28;20033;-66
2022/11/16 05:03:03;;;;;;;17.23;7.32;;;;;;;10.73;93.24;99772.50;4970919;28;20418;-65
2022/11/16 05:05:29;;;;;;;11.63;5.25;;;;;;;10.79;92.38;99769.09;4987497;28;20058;-66
2022/11/16 05:07:54;;;;;;;14.88;5.90;;;;;;;10.76;92.25;99779.84;4974986;28;20514;-65
2022/11/16 05:10:25;;;;;;;13.38;6.07;;;;;;;10.75;92.67;99768.28;4990416;28;20121;-65
2022/11/16 05:12:51;;;;;;;17.70;7.05;;;;;;;10.46;93.77;99774.66;4991222;28;20034;-65
2022/11/16 05:15:18;;;;;;;14.57;5.97;;;;;;;10.29;94.85;99769.94;4985553;28;20040;-66
2022/11/16 05:17:45;;;;;;;14.73;5.30;;;;;;;10.50;94.12;99770.09;4993854;28;20030;-66
2022/11/16 05:23:02;;;;;;;13.77;5.80;;;;;;;10.54;93.24;99767.41;5005992;28;20037;-65
2022/11/16 05:25:32;;;;;;;10.93;5.60;;;;;;;10.44;93.65;99773.50;5003310;28;20022;-65
2022/11/16 05:27:58;;;;;;;12.27;6.15;;;;;;;10.36;94.18;99771.91;4990255;28;20037;-65
2022/11/16 05:30:24;;;;;;;13.82;4.80;;;;;;;10.33;94.47;99778.03;4989793;28;20105;-66
2022/11/16 05:32:49;;;;;;;12.77;6.25;;;;;;;10.34;93.95;99776.88;5005611;28;20050;-65
2022/11/16 05:35:17;;;;;;;14.95;6.65;;;;;;;10.29;94.91;99774.56;4989113;28;20030;-65
2022/11/16 05:37:43;;;;;;;14.05;5.88;;;;;;;10.26;94.75;99768.00;4986718;28;20069;-66
2022/11/16 05:40:09;;;;;;;14.90;7.03;;;;;;;10.29;94.89;99772.63;4989709;28;20041;-64
2022/11/16 05:42:44;;;;;;;12.82;4.63;;;;;;;10.28;95.12;99773.78;4984486;28;20513;-64
2022/11/16 05:45:10;;;;;;;9.93;5.05;;;;;;;10.35;94.57;99765.75;4998506;28;20038;-65
2022/11/16 05:47:35;;;;;;;15.63;5.90;;;;;;;10.40;94.23;99768.09;4988067;28;20069;-66
2022/11/16 05:50:02;;;;;;;17.95;6.43;;;;;;;10.22;95.51;99764.50;4990520;28;20029;-65
2022/11/16 05:52:34;;;;;;;16.73;6.05;;;;;;;10.18;95.54;99769.06;4988264;28;20042;-65
2022/11/16 05:55:04;;;;;;;14.73;6.07;;;;;;;10.29;95.07;99767.25;4988509;28;20034;-66
2022/11/16 05:57:34;;;;;;;13.25;5.15;;;;;;;10.33;94.56;99772.66;5004085;28;20062;-65
2022/11/16 05:59:59;;;;;;;15.27;5.97;;;;;;;10.27;95.04;99772.25;5004252;28;20038;-66
2022/11/16 06:02:26;;;;;;;13.00;5.63;;;;;;;10.29;94.63;99759.19;4986961;28;20314;-66
2022/11/16 06:04:52;;;;;;;14.45;5.90;;;;;;;10.13;95.24;99768.66;4984020;28;20614;-65
2022/11/16 06:07:18;;;;;;;12.57;5.28;;;;;;;10.01;96.03;99770.47;4985804;28;20031;-66
2022/11/16 06:09:44;;;;;;;12.27;5.68;;;;;;;9.92;97.06;99771.94;4987862;28;20395;-66
2022/11/16 06:12:16;;;;;;;12.93;5.38;;;;;;;10.09;96.26;99754.38;4986674;28;20030;-66
2022/11/16 06:14:45;;;;;;;16.13;5.72;;;;;;;10.20;96.42;99769.47;4999897;28;20398;-66
2022/11/16 06:17:13;;;;;;;18.88;6.45;;;;;;;10.29;94.12;99766.47;4989995;28;20398;-65
2022/11/16 06:19:40;;;;;;;11.43;5.93;;;;;;;10.21;94.65;99770.25;4987620;28;20117;-65
2022/11/16 06:22:06;;;;;;;13.52;5.68;;;;;;;9.82;96.33;99761.84;4988074;28;20390;-65
2022/11/16 06:24:32;;;;;;;14.63;5.72;;;;;;;9.92;96.35;99761.19;5002584;28;20045;-65
2022/11/16 06:26:58;;;;;;;12.15;5.40;;;;;;;9.98;95.73;99757.00;4989517;28;21073;-66
2022/11/16 06:29:23;;;;;;;11.55;4.97;;;;;;;10.16;95.86;99762.56;4989020;28;20081;-66
2022/11/16 06:31:51;;;;;;;19.65;7.13;;;;;;;10.06;95.27;99752.44;4971840;28;20451;-66
2022/11/16 06:34:16;;;;;;;11.88;5.55;;;;;;;10.13;95.70;99758.69;4986502;28;20038;-65
2022/11/16 06:36:42;;;;;;;17.17;5.78;;;;;;;10.00;96.20;99755.50;5003363;28;20042;-65
2022/11/16 06:39:07;;;;;;;17.73;6.78;;;;;;;10.04;95.25;99761.66;4986584;28;20031;-66
2022/11/16 06:41:35;;;;;;;12.55;6.10;;;;;;;10.05;95.82;99757.03;4981296;28;20060;-66
2022/11/16 06:44:01;;;;;;;16.70;7.05;;;;;;;9.89;96.97;99762.69;4989850;28;20026;-65
2022/11/16 06:46:33;;;;;;;10.90;5.13;;;;;;;10.04;96.06;99756.25;4983359;28;20030;-66
2022/11/16 06:48:59;;;;;;;14.20;6.15;;;;;;;10.37;94.57;99760.78;4986133;28;20034;-66
2022/11/16 06:51:25;;;;;;;11.90;5.25;;;;;;;10.18;95.03;99765.63;4993893;28;20034;-66
2022/11/16 06:53:51;;;;;;;15.95;6.18;;;;;;;10.12;94.80;99759.06;4979511;28;20038;-66
2022/11/16 06:56:18;;;;;;;21.13;6.55;;;;;;;9.80;96.03;99764.13;4999062;28;20042;-65
2022/11/16 06:58:51;;;;;;;10.85;5.00;;;;;;;10.01;96.47;99772.38;4986618;28;20511;-65
2022/11/16 07:01:16;;;;;;;13.48;5.75;;;;;;;10.22;95.61;99764.50;4997823;28;20046;-66
2022/11/16 07:03:47;;;;;;;17.27;6.13;;;;;;;10.22;94.65;99771.81;4987463;28;20112;-66
2022/11/16 07:06:15;;;;;;;11.93;5.35;;;;;;;10.39;94.50;99771.94;4988648;28;20146;-66
2022/11/16 07:08:43;;;;;;;;;;;;;;;10.24;94.58;99772.97;4990810;28;20018;-67
2022/11/16 07:11:10;;;;;;;9.40;5.10;;;;;;;10.34;94.79;99779.56;4979471;28;20574;-66
2022/11/16 07:13:37;;;;;;;14.88;5.78;;;;;;;10.05;95.45;99767.81;4990114;28;20065;-66
2022/11/16 07:16:09;;;;;;;13.23;6.47;;;;;;;10.18;94.52;99766.38;4989888;28;20048;-66
2022/11/16 07:18:39;;;;;;;15.60;6.85;;;;;;;10.22;95.38;99772.56;5003741;28;20041;-66
2022/11/16 07:21:10;;;;;;;14.13;7.35;;;;;;;10.14;94.71;99772.91;4991498;28;20030;-66
2022/11/16 07:23:37;;;;;;;10.90;5.28;;;;;;;10.12;95.42;99775.97;4989480;28;20117;-68
2022/11/16 07:26:06;;;;;;;16.00;7.35;;;;;;;10.30;94.59;99774.16;4987009;28;20034;-65
2022/11/16 07:28:42;;;;;;;23.50;9.45;;;;;;;10.33;93.92;99778.03;4997098;28;20509;-65
2022/11/16 07:31:11;;;;;;;16.67;8.20;;;;;;;10.52;93.22;99770.47;4992612;28;20495;-65
2022/11/16 07:33:38;;;;;;;20.67;7.65;;;;;;;10.56;92.90;99778.56;4987144;28;20030;-69
2022/11/16 07:36:15;;;;;;;13.30;5.43;;;;;;;10.58;92.85;99779.75;4987947;28;20038;-64
2022/11/16 07:38:41;;;;;;;16.08;7.65;;;;;;;10.56;92.34;99779.34;5002433;28;20041;-65
2022/11/16 07:41:14;;;;;;;14.70;5.93;;;;;;;10.46;92.94;99777.34;4987470;28;20718;-67
2022/11/16 07:43:48;;;;;;;14.85;6.35;;;;;;;10.40;93.83;99767.31;4981063;28;20035;-65
2022/11/16 07:46:18;;;;;;;20.02;6.28;;;;;;;10.50;92.94;99772.00;4991014;28;20061;-65
2022/11/16 07:52:32;;;;;;;23.55;9.32;;;;;;;10.56;92.68;99784.72;4987346;28;20045;-65
2022/11/16 07:55:00;;;;;;;26.35;11.32;;;;;;;10.41;93.13;99777.72;4991958;28;20046;-63
2022/11/16 07:57:28;;;;;;;17.63;7.25;;;;;;;10.49;93.45;99789.31;4984462;28;20038;-64
2022/11/16 07:59:56;;;;;;;10.23;6.22;;;;;;;10.50;93.29;99788.91;4986928;28;20518;-65
2022/11/16 08:02:22;;;;;;;11.30;5.82;;;;;;;10.57;92.74;99782.78;4990566;28;20062;-65
2022/11/16 08:04:49;;;;;;;12.02;5.93;;;;;;;10.57;92.63;99778.19;4992499;28;20052;-63
2022/11/16 08:07:15;;;;;;;16.48;6.47;;;;;;;10.61;92.39;99775.50;4989892;28;20117;-64
2022/11/16 08:09:48;;;;;;;17.88;6.75;;;;;;;10.65;92.29;99774.41;4975930;28;20121;-64
2022/11/16 08:12:16;;;;;;;16.38;6.65;;;;;;;10.71;92.15;99775.59;4991342;28;20038;-64
2022/11/16 08:14:42;;;;;;;17.42;7.25;;;;;;;10.69;91.64;99774.41;4993456;28;20521;-64
2022/11/16 08:17:07;;;;;;;17.02;6.47;;;;;;;10.63;91.97;99781.28;4991743;28;20066;-65
2022/11/16 08:19:35;;;;;;;18.13;6.75;;;;;;;10.68;92.97;99779.00;4989330;28;20021;-65
2022/11/16 08:22:01;;;;;;;103.20;46.03;;;;;;;10.68;92.41;99783.66;5006317;28;20031;-64
2022/11/16 08:24:30;;;;;;;40.47;19.05;;;;;;;10.78;92.04;99789.06;5005324;28;20034;-64
2022/11/16 08:26:57;;;;;;;61.45;28.35;;;;;;;10.66;92.00;99791.31;4990172;28;20648;-65
2022/11/16 08:29:24;;;;;;;36.00;12.15;;;;;;;10.43;92.64;99786.16;4990135;28;20035;-64
2022/11/16 08:31:51;;;;;;;17.42;6.97;;;;;;;10.36;93.88;99793.44;5008963;23;20133;-65
2022/11/16 08:34:19;;;;;;;14.32;6.53;;;;;;;10.52;93.69;99792.00;5012227;28;20029;-65
2022/11/16 08:36:48;;;;;;;17.42;6.95;;;;;;;10.59;92.82;99789.34;5013080;28;20079;-65
2022/11/16 08:39:15;;;;;;;13.70;6.57;;;;;;;10.49;92.12;99786.63;5006110;28;20124;-65
2022/11/16 08:41:43;;;;;;;15.90;6.25;;;;;;;10.41;92.86;99790.41;5000709;28;20669;-65
2022/11/16 08:44:09;;;;;;;12.80;5.82;;;;;;;10.42;93.06;99797.31;5005697;28;20034;-65
2022/11/16 08:46:38;;;;;;;12.02;5.38;;;;;;;10.47;92.79;99792.34;4997785;28;20057;-64
2022/11/16 08:49:16;;;;;;;9.77;5.43;;;;;;;10.50;93.05;99799.69;4986216;28;20040;-65
2022/11/16 08:51:41;;;;;;;15.40;7.07;;;;;;;10.40;92.77;99795.00;5004079;28;20034;-65
2022/11/16 08:54:08;;;;;;;17.25;5.93;;;;;;;10.35;93.30;99795.38;5005916;28;20100;-66
2022/11/16 08:56:36;;;;;;;16.25;6.47;;;;;;;10.50;92.51;99794.31;5009967;28;20040;-66
2022/11/16 08:59:02;;;;;;;16.85;6.30;;;;;;;10.46;92.61;99801.59;5003875;28;20030;-66
2022/11/16 09:01:30;;;;;;;13.18;6.85;;;;;;;10.46;92.62;99796.19;4986282;28;20088;-66
2022/11/16 09:03:56;;;;;;;20.70;7.57;;;;;;;10.33;92.99;99800.34;5001337;28;20413;-65
2022/11/16 09:06:23;;;;;;;14.38;6.32;;;;;;;10.43;92.14;99796.19;4998597;28;20121;-65
2022/11/16 09:08:50;;;;;;;13.43;6.20;;;;;;;10.38;91.83;99801.91;5004374;28;20053;-67
2022/11/16 09:11:18;;;;;;;14.95;7.07;;;;;;;10.44;92.08;99803.88;4999714;28;20034;-65
2022/11/16 09:13:45;;;;;;;13.48;6.07;;;;;;;10.43;92.33;99799.63;5001110;28;20041;-65
2022/11/16 09:16:11;;;;;;;13.95;6.78;;;;;;;10.49;92.14;99810.84;5007674;28;20430;-65
2022/11/16 09:18:36;;;;;;;14.40;6.93;;;;;;;10.36;92.67;99804.97;4995248;28;20088;-66
2022/11/16 09:21:02;;;;;;;17.98;7.57;;;;;;;10.15;93.53;99810.19;4999654;28;20088;-65
2022/11/16 09:23:28;;;;;;;19.90;8.00;;;;;;;10.30;93.53;99814.53;5001836;28;20030;-66
2022/11/16 09:25:54;;;;;;;18.65;6.50;;;;;;;10.26;93.65;99821.06;5007299;28;20112;-72
2022/11/16 09:28:21;;;;;;;17.65;6.22;;;;;;;10.33;93.43;99816.50;4998511;28;20095;-73
2022/11/16 09:30:49;;;;;;;15.18;6.40;;;;;;;10.43;92.55;99809.63;5004364;28;20044;-66
2022/11/16 09:33:14;;;;;;;14.15;6.63;;;;;;;10.39;92.09;99815.00;4995725;28;20046;-67
2022/11/16 09:35:40;;;;;;;20.80;8.18;;;;;;;10.26;93.46;99827.19;5003405;28;20042;-66
2022/11/16 12:40:33;;;;;;;24.20;8.50;;;;;;;8.29;100.00;99798.00;5043318;28;20456;-70
2022/11/16 12:43:38;;;;;;;27.48;7.85;;;;;;;9.07;100.00;99794.47;5038021;28;20090;-72
2022/11/16 12:46:50;;;;;;;21.42;8.43;;;;;;;9.58;100.00;99798.09;5024380;28;20045;-72
2022/11/16 12:49:26;;;;;;;24.52;8.75;;;;;;;9.94;100.00;99789.25;5045983;28;20041;-71
2022/11/16 12:52:22;;;;;;;24.55;8.23;;;;;;;10.17;100.00;99790.97;5045575;28;20128;-71
2022/11/16 12:55:03;;;;;;;31.95;9.75;;;;;;;10.27;100.00;99791.06;5045032;28;20033;-73
2022/11/16 12:57:34;;;;;;;20.10;8.23;;;;;;;10.42;100.00;99794.63;5041052;28;20053;-71
2022/11/16 13:00:07;;;;;;;23.67;8.43;;;;;;;10.50;100.00;99797.00;5030001;28;20048;-71
2022/11/16 13:02:57;;;;;;;27.35;9.45;;;;;;;10.58;100.00;99798.59;5032883;28;20087;-71
2022/11/16 13:05:39;;;;;;;24.77;9.45;;;;;;;10.40;100.00;99800.38;5036084;28;20017;-70
2022/11/16 13:08:09;;;;;;;25.55;9.07;;;;;;;10.26;100.00;99794.91;5030096;28;20080;-72
2022/11/16 13:10:41;;;;;;;26.80;9.05;;;;;;;10.38;100.00;99788.44;5043492;28;20037;-72
2022/11/16 13:13:18;;;;;;;18.60;7.88;;;;;;;10.51;100.00;99805.84;5041275;28;20021;-72
2022/11/16 13:15:46;;;;;;;30.70;9.43;;;;;;;10.52;100.00;99802.78;5046922;28;20661;-72
2022/11/16 13:18:15;;;;;;;25.13;8.05;;;;;;;10.75;100.00;99806.00;5032118;28;20018;-71
2022/11/16 13:21:02;;;;;;;21.38;7.65;;;;;;;10.62;100.00;99799.38;5039724;28;20037;-71
2022/11/16 13:23:30;;;;;;;22.40;7.85;;;;;;;10.52;100.00;99804.69;5043604;28;20033;-72
2022/11/16 13:26:01;;;;;;;22.95;7.35;;;;;;;10.60;100.00;99799.00;5041898;28;20060;-72
2022/11/16 13:28:36;;;;;;;20.85;6.90;;;;;;;10.70;100.00;99797.50;5037113;28;20408;-71
2022/11/16 13:31:11;;;;;;;19.90;7.15;;;;;;;10.67;100.00;99798.25;5034421;28;20029;-72
2022/11/16 13:33:43;;;;;;;12.55;6.13;;;;;;;10.70;99.77;99795.56;5026967;28;20071;-71
2022/11/16 13:36:42;;;;;;;23.13;6.25;;;;;;;10.67;99.48;99795.56;5031657;28;20409;-71
2022/11/16 13:39:09;;;;;;;19.63;6.88;;;;;;;10.61;98.81;99792.44;5028818;28;20033;-72
2022/11/16 13:41:40;;;;;;;21.17;6.03;;;;;;;10.61;99.21;99780.91;5032775;28;20063;-71
2022/11/16 13:44:27;;;;;;;18.25;5.35;;;;;;;10.57;99.01;99788.19;5042642;28;20041;-70
2022/11/16 13:47:05;;;;;;;21.40;7.43;;;;;;;10.44;98.72;99790.41;5033433;28;20035;-72
2022/11/16 13:49:46;;;;;;;14.63;5.38;;;;;;;10.38;98.96;99791.13;5035532;28;20033;-71
2022/11/16 13:52:12;;;;;;;20.17;8.15;;;;;;;10.30;99.82;99789.56;5032838;28;20078;-72
2022/11/16 13:54:41;;;;;;;13.35;5.88;;;;;;;10.35;99.83;99789.97;5028247;28;20116;-72
2022/11/16 13:57:27;;;;;;;15.95;6.78;;;;;;;10.42;100.00;99792.72;5024032;28;20060;-71
2022/11/16 14:00:02;;;;;;;13.45;6.60;;;;;;;10.52;99.27;99785.84;5023324;28;20037;-71
2022/11/16 14:02:40;;;;;;;18.50;6.60;;;;;;;10.52;99.33;99792.00;5025274;28;20038;-71
2022/11/16 14:05:11;;;;;;;19.17;7.40;;;;;;;10.59;98.55;99791.25;5026511;28;20037;-72
2022/11/16 14:07:49;;;;;;;;;;;;;;;10.53;99.20;99796.25;5020696;28;20050;-72
2022/11/16 14:10:32;;;;;;;20.25;5.50;;;;;;;10.55;98.72;99788.56;5031762;28;19924;-71
2022/11/16 14:12:59;;;;;;;17.13;6.43;;;;;;;10.41;99.01;99785.81;5022576;28;20038;-71
2022/11/16 14:15:28;;;;;;;15.85;6.60;;;;;;;10.34;98.71;99783.03;5023999;28;20188;-72
2022/11/16 14:18:01;;;;;;;18.45;7.10;;;;;;;10.35;99.25;99784.59;5023787;28;20041;-72
2022/11/16 14:20:41;;;;;;;18.95;6.25;;;;;;;10.33;99.02;99794.97;5019265;28;20045;-71
2022/11/16 14:23:25;;;;;;;16.23;5.88;;;;;;;10.47;99.05;99788.91;5020462;28;20486;-72
2022/11/16 14:26:32;;;;;;;13.25;5.13;;;;;;;10.52;98.11;99783.94;5021131;28;20049;-71
2022/11/16 14:29:30;;;;;;;12.15;5.85;;;;;;;10.55;97.99;99785.88;5014025;28;20041;-70
2022/11/16 14:31:59;;;;;;;11.77;5.88;;;;;;;10.51;97.80;99785.06;5022505;28;20061;-70
2022/11/16 14:34:31;;;;;;;19.95;7.45;;;;;;;10.54;97.49;99787.03;5024906;28;20030;-71
2022/11/16 14:36:57;;;;;;;;;;;;;;;10.60;97.19;99787.44;5027887;28;20025;-71
2022/11/16 14:39:42;;;;;;;17.80;6.07;;;;;;;10.47;97.68;99784.28;5020608;28;19917;-70
2022/11/16 14:42:28;;;;;;;16.85;8.02;;;;;;;10.46;97.81;99782.75;5029257;28;20108;-71
2022/11/16 14:45:00;;;;;;;15.77;6.57;;;;;;;10.43;97.82;99796.19;5023216;28;20034;-71
2022/11/16 14:47:29;;;;;;;22.73;7.78;;;;;;;10.38;98.19;99796.50;5015063;28;20179;-71
2022/11/16 14:49:55;;;;;;;14.02;7.10;;;;;;;10.12;98.82;99788.66;5029516;28;20028;-71
2022/11/16 14:52:33;;;;;;;16.00;6.50;;;;;;;10.13;99.03;99788.28;5025765;28;20041;-71
2022/11/16 14:55:03;;;;;;;20.80;6.45;;;;;;;10.32;98.95;99774.56;5023318;28;20025;-70
2022/11/16 14:57:31;;;;;;;19.42;7.68;;;;;;;10.02;98.24;99784.69;5031109;28;20037;-71
2022/11/16 15:00:20;;;;;;;16.08;7.00;;;;;;;10.07;99.23;99780.88;5024434;28;20025;-71
2022/11/16 15:02:49;;;;;;;18.70;6.90;;;;;;;10.22;98.21;99769.13;5017215;28;20095;-70
2022/11/16 15:05:17;;;;;;;22.08;7.10;;;;;;;10.18;98.50;99773.72;5017765;28;20049;-71
2022/11/16 15:07:45;;;;;;;19.60;6.57;;;;;;;10.18;98.60;99769.06;5016773;28;20040;-70
2022/11/16 15:10:17;;;;;;;15.90;6.82;;;;;;;10.21;97.42;99775.63;5019947;28;20046;-71
2022/11/16 15:12:50;;;;;;;19.05;6.85;;;;;;;10.16;97.60;99768.72;5015212;28;20569;-71
2022/11/16 15:15:23;;;;;;;19.25;7.43;;;;;;;9.70;98.50;99778.25;5020053;28;20037;-70
2022/11/16 15:17:58;;;;;;;17.40;7.18;;;;;;;9.96;98.81;99776.22;5012452;28;20042;-71
2022/11/16 15:20:29;;;;;;;16.67;6.63;;;;;;;10.19;97.56;99775.25;5011765;28;20041;-71
2022/11/16 15:22:59;;;;;;;20.05;7.40;;;;;;;10.24;97.40;99775.66;5019416;28;20037;-70
2022/11/16 15:25:35;;;;;;;14.32;6.13;;;;;;;10.30;96.75;99776.84;5016036;28;20422;-70
2022/11/16 15:28:13;;;;;;;15.68;6.00;;;;;;;10.31;96.49;99775.72;5020541;28;20021;-71